createdAt,value
2022-12-26T00:01:24.116Z,12.83
2022-12-26T00:03:51.507Z,13.67
2022-12-26T00:06:22.461Z,12.13
2022-12-26T00:08:49.932Z,12.83
2022-12-26T00:11:18.498Z,13.40
2022-12-26T00:13:46.126Z,15.17
2022-12-26T00:16:19.869Z,15.43
2022-12-26T00:18:47.784Z,14.97
2022-12-26T00:21:16.428Z,12.80
2022-12-26T00:23:43.996Z,11.90
2022-12-26T00:26:20.140Z,12.33
2022-12-26T00:28:48.047Z,13.83
2022-12-26T00:31:27.854Z,16.13
2022-12-26T00:33:55.200Z,13.10
2022-12-26T00:36:29.723Z,12.93
2022-12-26T00:38:59.124Z,14.27
2022-12-26T00:41:26.957Z,11.97
2022-12-26T00:43:54.150Z,10.27
2022-12-26T00:46:21.149Z,9.43
2022-12-26T00:48:48.539Z,9.40
2022-12-26T00:51:15.960Z,8.70
2022-12-26T00:53:43.163Z,9.00
2022-12-26T00:56:10.476Z,8.87
2022-12-26T00:58:38.221Z,9.67
2022-12-26T01:01:13.129Z,9.77
2022-12-26T01:03:42.490Z,9.30
2022-12-26T01:06:09.436Z,8.83
2022-12-26T01:08:36.622Z,8.57
2022-12-26T01:11:10.920Z,8.10
2022-12-26T01:13:38.499Z,8.03
2022-12-26T01:16:07.577Z,7.90
2022-12-26T01:18:35.631Z,7.83
2022-12-26T01:21:07.339Z,7.20
2022-12-26T01:23:34.568Z,7.10
2022-12-26T01:26:17.131Z,7.10
2022-12-26T01:28:48.752Z,6.73
2022-12-26T01:31:16.223Z,6.33
2022-12-26T01:33:43.249Z,6.13
2022-12-26T01:36:10.558Z,6.73
2022-12-26T01:38:37.656Z,6.87
2022-12-26T01:41:17.283Z,7.33
2022-12-26T01:44:00.487Z,6.73
2022-12-26T01:46:44.669Z,6.00
2022-12-26T01:49:35.372Z,5.77
2022-12-26T01:52:13.623Z,6.13
2022-12-26T01:54:46.350Z,5.87
2022-12-26T01:57:29.686Z,6.07
2022-12-26T01:59:58.720Z,5.73
2022-12-26T02:02:28.783Z,5.73
2022-12-26T02:05:16.260Z,5.50
2022-12-26T02:07:45.945Z,5.43
2022-12-26T02:10:23.025Z,5.57
2022-12-26T02:12:50.697Z,5.57
2022-12-26T02:15:18.877Z,5.70
2022-12-26T02:17:45.838Z,5.00
2022-12-26T02:20:19.971Z,4.90
2022-12-26T02:23:21.830Z,5.40
2022-12-26T02:26:31.044Z,4.93
2022-12-26T02:29:54.654Z,5.37
2022-12-26T02:32:54.023Z,5.20
2022-12-26T02:35:35.984Z,5.67
2022-12-26T02:39:02.272Z,5.60
2022-12-26T02:42:20.615Z,6.17
2022-12-26T02:45:40.332Z,5.83
2022-12-26T02:49:01.872Z,7.03
2022-12-26T02:51:57.824Z,6.50
2022-12-26T02:54:47.094Z,6.20
2022-12-26T02:57:43.385Z,6.40
2022-12-26T03:00:40.479Z,6.27
2022-12-26T03:03:41.527Z,5.40
2022-12-26T03:06:34.341Z,5.60
2022-12-26T03:09:26.209Z,4.93
2022-12-26T03:12:39.938Z,4.77
2022-12-26T03:15:12.738Z,4.90
2022-12-26T03:17:59.146Z,5.10
2022-12-26T03:20:35.403Z,5.07
2022-12-26T03:23:11.268Z,5.43
2022-12-26T03:26:10.129Z,5.33
2022-12-26T03:28:37.713Z,5.40
2022-12-26T03:31:15.055Z,5.23
2022-12-26T03:34:04.927Z,5.23
2022-12-26T03:37:01.975Z,5.63
2022-12-26T03:40:04.713Z,4.63
2022-12-26T03:43:28.671Z,4.37
2022-12-26T03:46:21.095Z,4.90
2022-12-26T03:50:06.368Z,4.53
2022-12-26T03:53:03.960Z,5.07
2022-12-26T03:56:04.118Z,4.90
2022-12-26T03:59:01.327Z,4.70
2022-12-26T04:01:51.162Z,4.33
2022-12-26T04:04:43.763Z,4.73
2022-12-26T04:07:36.290Z,4.60
2022-12-26T04:10:49.211Z,4.83
2022-12-26T04:14:25.023Z,4.70
2022-12-26T04:17:36.784Z,4.90
2022-12-26T04:20:43.798Z,4.37
2022-12-26T04:23:47.685Z,4.80
2022-12-26T04:26:43.870Z,4.87
2022-12-26T04:29:29.745Z,4.47
2022-12-26T04:32:32.088Z,4.67
2022-12-26T04:35:38.947Z,4.37
2022-12-26T04:38:26.052Z,4.57
2022-12-26T04:41:18.317Z,4.60
2022-12-26T04:44:04.927Z,4.30
2022-12-26T04:46:34.653Z,4.03
2022-12-26T04:49:27.496Z,4.17
2022-12-26T04:51:57.323Z,4.10
2022-12-26T04:54:24.757Z,3.70
2022-12-26T04:56:52.291Z,3.80
2022-12-26T04:59:20.672Z,3.90
2022-12-26T05:02:06.034Z,3.60
2022-12-26T05:04:51.811Z,3.40
2022-12-26T05:07:49.255Z,3.80
2022-12-26T05:10:22.063Z,3.63
2022-12-26T05:12:49.759Z,3.50
2022-12-26T05:15:17.161Z,4.30
2022-12-26T05:18:02.420Z,4.80
2022-12-26T05:20:58.786Z,3.80
2022-12-26T05:23:46.423Z,3.60
2022-12-26T05:26:41.874Z,3.63
2022-12-26T05:29:11.721Z,3.60
2022-12-26T05:31:39.828Z,3.70
2022-12-26T05:34:07.836Z,3.93
2022-12-26T05:36:45.129Z,3.43
2022-12-26T05:39:12.417Z,3.90
2022-12-26T05:41:40.613Z,3.80
2022-12-26T05:44:09.009Z,4.20
2022-12-26T05:46:37.068Z,4.10
2022-12-26T05:49:05.605Z,4.33
2022-12-26T05:51:32.611Z,4.30
2022-12-26T05:54:02.479Z,3.83
2022-12-26T05:56:30.087Z,4.00
2022-12-26T05:59:01.658Z,4.27
2022-12-26T06:01:30.080Z,4.17
2022-12-26T06:04:00.210Z,4.20
2022-12-26T06:06:29.109Z,3.63
2022-12-26T06:08:57.623Z,3.40
2022-12-26T06:11:26.709Z,3.47
2022-12-26T06:13:54.641Z,3.03
2022-12-26T06:16:21.814Z,2.83
2022-12-26T06:18:49.817Z,3.00
2022-12-26T06:21:20.112Z,2.80
2022-12-26T06:23:47.681Z,2.97
2022-12-26T06:26:14.996Z,2.80
2022-12-26T06:28:43.734Z,2.83
2022-12-26T06:31:22.353Z,2.43
2022-12-26T06:34:00.855Z,2.23
2022-12-26T06:36:30.254Z,2.10
2022-12-26T06:38:58.067Z,3.70
2022-12-26T06:41:25.877Z,2.10
2022-12-26T06:43:53.386Z,2.10
2022-12-26T06:46:23.698Z,2.27
2022-12-26T06:48:51.827Z,2.30
2022-12-26T06:51:23.042Z,2.20
2022-12-26T06:53:52.453Z,2.30
2022-12-26T06:56:26.336Z,1.90
2022-12-26T06:58:55.544Z,2.10
2022-12-26T07:01:23.283Z,1.87
2022-12-26T07:03:53.631Z,1.87
2022-12-26T07:06:28.280Z,1.93
2022-12-26T07:09:05.503Z,1.90
2022-12-26T07:11:37.853Z,1.53
2022-12-26T07:14:13.770Z,1.80
2022-12-26T07:16:43.091Z,1.60
2022-12-26T07:19:12.511Z,1.70
2022-12-26T07:21:41.194Z,1.80
2022-12-26T07:24:19.418Z,1.90
2022-12-26T07:26:47.377Z,1.60
2022-12-26T07:29:15.751Z,1.90
2022-12-26T07:31:43.244Z,1.63
2022-12-26T07:34:10.403Z,2.13
2022-12-26T07:36:37.388Z,1.50
2022-12-26T07:39:04.518Z,1.70
2022-12-26T07:41:50.353Z,1.60
2022-12-26T07:44:17.627Z,1.90
2022-12-26T07:46:46.671Z,2.10
2022-12-26T07:49:14.230Z,1.67
2022-12-26T07:51:43.045Z,1.63
2022-12-26T07:54:11.615Z,1.60
2022-12-26T07:56:40.030Z,1.80
2022-12-26T07:59:07.902Z,2.10
2022-12-26T08:01:34.968Z,1.67
2022-12-26T08:04:02.178Z,1.80
2022-12-26T08:06:29.271Z,1.90
2022-12-26T08:08:56.390Z,1.90
2022-12-26T08:11:25.022Z,2.10
2022-12-26T08:13:52.818Z,2.10
2022-12-26T08:16:20.767Z,1.87
2022-12-26T08:18:47.811Z,1.80
2022-12-26T08:21:15.183Z,2.03
2022-12-26T08:23:42.131Z,2.00
2022-12-26T08:26:16.407Z,2.00
2022-12-26T08:28:43.345Z,1.97
2022-12-26T08:31:12.696Z,2.20
2022-12-26T08:33:39.800Z,2.00
2022-12-26T08:36:10.008Z,2.00
2022-12-26T08:38:38.199Z,2.53
2022-12-26T08:41:05.743Z,4.17
2022-12-26T08:44:24.493Z,2.43
2022-12-26T08:46:21.973Z,3.10
2022-12-26T08:48:50.654Z,2.57
2022-12-26T08:51:22.348Z,2.10
2022-12-26T08:53:51.244Z,2.63
2022-12-26T08:56:23.797Z,3.10
2022-12-26T08:58:51.118Z,3.20
2022-12-26T09:01:27.018Z,4.00
2022-12-26T09:03:57.858Z,2.50
2022-12-26T09:06:25.726Z,2.73
2022-12-26T09:08:53.556Z,2.43
2022-12-26T09:11:26.766Z,2.70
2022-12-26T09:13:55.802Z,2.33
2022-12-26T09:16:31.503Z,3.07
2022-12-26T09:19:02.728Z,5.40
2022-12-26T09:21:30.610Z,5.43
2022-12-26T09:24:12.908Z,5.13
2022-12-26T09:26:40.266Z,3.80
2022-12-26T09:29:07.782Z,3.27
2022-12-26T09:31:36.116Z,3.00
2022-12-26T09:34:05.893Z,3.30
2022-12-26T09:36:38.319Z,3.27
2022-12-26T09:39:06.765Z,3.30
2022-12-26T09:41:48.539Z,3.47
2022-12-26T09:45:12.776Z,4.70
2022-12-26T09:47:52.322Z,3.30
2022-12-26T09:50:30.364Z,3.23
2022-12-26T09:53:07.037Z,3.33
2022-12-26T09:55:57.494Z,2.50
2022-12-26T09:58:55.316Z,1.20
2022-12-26T10:01:36.325Z,1.77
2022-12-26T10:04:14.874Z,1.47
2022-12-26T10:06:49.535Z,1.70
2022-12-26T10:09:39.797Z,1.60
2022-12-26T10:12:26.647Z,1.60
2022-12-26T10:15:38.570Z,1.07
2022-12-26T10:18:52.344Z,1.47
2022-12-26T10:21:40.725Z,1.50
2022-12-26T10:24:25.525Z,2.27
2022-12-26T10:27:01.494Z,1.60
2022-12-26T10:29:40.761Z,1.73
2022-12-26T10:32:27.913Z,1.67
2022-12-26T10:34:55.389Z,1.50
2022-12-26T10:37:40.725Z,1.53
2022-12-26T10:40:23.363Z,1.83
2022-12-26T10:42:55.191Z,2.03
2022-12-26T10:45:43.407Z,2.00
2022-12-26T10:48:14.384Z,1.93
2022-12-26T10:50:48.507Z,2.00
2022-12-26T10:53:17.457Z,1.87
2022-12-26T10:55:44.617Z,1.80
2022-12-26T10:58:19.355Z,1.70
2022-12-26T11:00:46.462Z,1.90
2022-12-26T11:03:20.225Z,1.60
2022-12-26T11:06:07.947Z,1.73
2022-12-26T11:08:49.472Z,1.40
2022-12-26T11:11:45.733Z,1.40
2022-12-26T11:14:36.810Z,1.13
2022-12-26T11:17:12.551Z,1.67
2022-12-26T11:19:45.083Z,1.83
2022-12-26T11:22:23.486Z,1.30
2022-12-26T11:25:08.056Z,1.40
2022-12-26T11:27:35.913Z,1.80
2022-12-26T11:30:15.153Z,1.90
2022-12-26T11:32:45.606Z,1.87
2022-12-26T11:35:24.329Z,1.87
2022-12-26T11:37:55.711Z,2.73
2022-12-26T11:40:30.155Z,2.27
2022-12-26T11:42:59.629Z,1.87
2022-12-26T11:45:37.068Z,1.60
2022-12-26T11:48:21.758Z,2.00
2022-12-26T11:50:49.197Z,1.50
2022-12-26T11:53:20.500Z,1.67
2022-12-26T11:56:03.844Z,2.33
2022-12-26T11:58:33.531Z,2.13
2022-12-26T12:01:00.408Z,1.80
2022-12-26T12:03:37.008Z,1.80
2022-12-26T12:06:39.320Z,1.63
2022-12-26T12:09:37.799Z,2.30
2022-12-26T12:12:46.246Z,2.57
2022-12-26T12:15:19.676Z,2.03
2022-12-26T12:18:10.743Z,1.73
2022-12-26T12:21:19.504Z,1.97
2022-12-26T12:24:32.295Z,1.67
2022-12-26T12:27:25.561Z,3.33
2022-12-26T12:30:10.938Z,4.93
2022-12-26T12:33:08.836Z,2.07
2022-12-26T12:35:56.987Z,1.77
2022-12-26T12:38:42.007Z,1.60
2022-12-26T12:41:14.748Z,2.30
2022-12-26T12:44:05.613Z,1.80
2022-12-26T12:47:04.743Z,1.87
2022-12-26T12:50:22.578Z,1.90
2022-12-26T12:52:55.289Z,1.80
2022-12-26T12:56:05.336Z,3.00
2022-12-26T12:58:49.285Z,1.87
2022-12-26T13:01:26.759Z,1.90
2022-12-26T13:04:39.163Z,2.00
2022-12-26T13:07:17.076Z,1.73
2022-12-26T13:09:57.357Z,1.73
2022-12-26T13:12:37.796Z,2.30
2022-12-26T13:15:24.065Z,1.70
2022-12-26T13:17:58.373Z,1.43
2022-12-26T13:20:39.008Z,1.80
2022-12-26T13:23:37.008Z,1.80
2022-12-26T13:26:17.492Z,1.70
2022-12-26T13:29:10.512Z,1.40
2022-12-26T13:31:39.986Z,1.40
2022-12-26T13:34:14.938Z,1.50
2022-12-26T13:36:53.454Z,2.20
2022-12-26T13:39:23.511Z,2.07
2022-12-26T13:42:38.681Z,1.90
2022-12-26T13:45:35.964Z,1.70
2022-12-26T13:48:12.607Z,1.37
2022-12-26T13:51:01.526Z,1.63
2022-12-26T13:53:33.030Z,1.80
2022-12-26T13:56:18.593Z,2.27
2022-12-26T13:59:12.969Z,2.00
2022-12-26T14:02:06.954Z,1.60
2022-12-26T14:05:14.751Z,1.37
2022-12-26T14:08:24.142Z,1.80
2022-12-26T14:11:23.082Z,1.43
2022-12-26T14:14:20.661Z,1.10
2022-12-26T14:16:53.402Z,1.20
2022-12-26T14:19:23.301Z,1.43
2022-12-26T14:22:30.312Z,1.87
2022-12-26T14:25:32.225Z,2.10
2022-12-26T14:28:31.495Z,1.70
2022-12-26T14:31:22.085Z,1.57
2022-12-26T14:34:35.737Z,1.10
2022-12-26T14:37:21.243Z,1.90
2022-12-26T14:40:27.961Z,1.53
2022-12-26T14:43:11.760Z,1.50
2022-12-26T14:45:50.679Z,1.30
2022-12-26T14:48:17.629Z,1.73
2022-12-26T14:50:56.881Z,1.50
2022-12-26T14:53:29.548Z,1.67
2022-12-26T14:56:02.279Z,1.40
2022-12-26T14:58:32.257Z,1.50
2022-12-26T15:01:15.549Z,1.70
2022-12-26T15:04:03.414Z,1.60
2022-12-26T15:07:01.629Z,1.80
2022-12-26T15:09:47.784Z,1.90
2022-12-26T15:12:20.546Z,2.20
2022-12-26T15:15:21.330Z,2.20
2022-12-26T15:18:22.261Z,2.00
2022-12-26T15:21:27.441Z,2.57
2022-12-26T15:25:16.589Z,2.40
2022-12-26T15:28:03.855Z,2.70
2022-12-26T15:31:19.091Z,2.27
2022-12-26T15:34:33.932Z,6.23
2022-12-26T15:37:28.556Z,16.30
2022-12-26T15:40:28.628Z,10.07
2022-12-26T15:43:42.604Z,8.53
2022-12-26T15:46:33.796Z,4.43
2022-12-26T15:49:28.463Z,3.50
2022-12-26T15:52:07.225Z,3.13
2022-12-26T15:55:18.004Z,3.33
2022-12-26T15:57:56.579Z,3.97
2022-12-26T16:00:38.890Z,4.87
2022-12-26T16:03:44.369Z,6.40
2022-12-26T16:07:09.563Z,5.10
2022-12-26T16:09:49.704Z,4.57
2022-12-26T16:12:27.513Z,4.00
2022-12-26T16:15:21.358Z,4.40
2022-12-26T16:17:48.949Z,3.00
2022-12-26T16:20:43.233Z,5.97
2022-12-26T16:23:17.875Z,4.43
2022-12-26T16:25:53.671Z,3.57
2022-12-26T16:28:32.018Z,3.40
2022-12-26T16:30:59.563Z,3.97
2022-12-26T16:33:34.414Z,4.40
2022-12-26T16:36:01.810Z,4.90
2022-12-26T16:38:31.631Z,4.93
2022-12-26T16:41:00.459Z,6.40
2022-12-26T16:43:34.641Z,6.20
2022-12-26T16:46:06.270Z,6.10
2022-12-26T16:48:36.087Z,6.73
2022-12-26T16:51:40.531Z,6.60
2022-12-26T16:54:22.682Z,6.83
2022-12-26T16:57:02.417Z,7.03
2022-12-26T16:59:49.519Z,7.70
2022-12-26T17:02:28.698Z,11.83
2022-12-26T17:05:04.167Z,7.23
2022-12-26T17:07:32.135Z,5.87
2022-12-26T17:10:01.251Z,6.10
2022-12-26T17:12:37.697Z,6.73
2022-12-26T17:15:07.632Z,5.63
2022-12-26T17:17:38.149Z,5.30
2022-12-26T17:20:23.439Z,4.77
2022-12-26T17:22:55.779Z,7.00
2022-12-26T17:25:31.244Z,5.17
2022-12-26T17:28:15.140Z,4.63
2022-12-26T17:30:48.577Z,5.10
2022-12-26T17:33:23.735Z,4.00
2022-12-26T17:38:54.602Z,4.53
2022-12-26T17:41:21.640Z,5.40
2022-12-26T17:43:50.280Z,6.23
2022-12-26T17:46:18.136Z,6.40
2022-12-26T17:48:45.630Z,6.10
2022-12-26T17:51:17.414Z,5.87
2022-12-26T17:53:49.788Z,7.07
2022-12-26T17:56:23.464Z,6.27
2022-12-26T17:58:50.915Z,6.83
2022-12-26T18:01:21.522Z,6.77
2022-12-26T18:03:50.110Z,6.37
2022-12-26T18:06:19.562Z,6.33
2022-12-26T18:08:46.895Z,5.00
2022-12-26T18:11:14.820Z,5.83
2022-12-26T18:13:43.177Z,5.00
2022-12-26T18:16:17.361Z,4.43
2022-12-26T18:18:46.874Z,4.53
2022-12-26T18:21:16.427Z,4.43
2022-12-26T18:23:43.504Z,3.60
2022-12-26T18:26:27.166Z,3.70
2022-12-26T18:28:54.895Z,4.03
2022-12-26T18:31:21.986Z,3.47
2022-12-26T18:33:50.405Z,2.93
2022-12-26T18:36:18.476Z,3.43
2022-12-26T18:38:45.943Z,2.87
2022-12-26T18:41:18.849Z,2.83
2022-12-26T18:43:46.726Z,3.60
2022-12-26T18:46:23.666Z,3.00
2022-12-26T18:48:51.070Z,3.27
2022-12-26T18:51:19.423Z,3.07
2022-12-26T18:53:47.219Z,3.27
2022-12-26T18:56:18.696Z,3.37
2022-12-26T18:58:48.386Z,3.93
2022-12-26T19:01:19.191Z,3.70
2022-12-26T19:03:46.510Z,4.60
2022-12-26T19:06:23.393Z,3.80
2022-12-26T19:08:50.367Z,4.17
2022-12-26T19:11:17.469Z,3.77
2022-12-26T19:13:44.683Z,3.40
2022-12-26T19:16:11.701Z,5.87
2022-12-26T19:18:38.832Z,4.30
2022-12-26T19:21:13.995Z,4.87
2022-12-26T19:23:42.344Z,4.53
2022-12-26T19:26:12.721Z,4.93
2022-12-26T19:28:40.133Z,5.33
2022-12-26T19:31:13.419Z,5.13
2022-12-26T19:33:41.283Z,4.47
2022-12-26T19:36:09.627Z,5.10
2022-12-26T19:38:39.676Z,5.50
2022-12-26T19:41:15.653Z,5.90
2022-12-26T19:43:42.769Z,6.47
2022-12-26T19:46:15.857Z,5.63
2022-12-26T19:48:43.503Z,5.83
2022-12-26T19:51:14.654Z,5.50
2022-12-26T19:53:43.382Z,5.17
2022-12-26T19:56:12.879Z,5.47
2022-12-26T19:58:40.149Z,5.37
2022-12-26T20:01:10.534Z,5.50
2022-12-26T20:03:37.773Z,4.87
2022-12-26T20:06:20.266Z,4.93
2022-12-26T20:08:50.099Z,5.10
2022-12-26T20:11:25.637Z,5.40
2022-12-26T20:13:52.796Z,5.20
2022-12-26T20:17:03.013Z,5.30
2022-12-26T20:19:12.788Z,4.97
2022-12-26T20:21:39.755Z,5.27
2022-12-26T20:24:06.975Z,5.40
2022-12-26T20:26:34.023Z,5.13
2022-12-26T20:29:02.174Z,5.53
2022-12-26T20:31:31.926Z,4.93
2022-12-26T20:33:59.957Z,5.27
2022-12-26T20:36:34.151Z,4.83
2022-12-26T20:39:07.474Z,5.03
2022-12-26T20:41:34.982Z,4.93
2022-12-26T20:44:02.103Z,4.80
2022-12-26T20:46:32.609Z,5.40
2022-12-26T20:49:02.290Z,4.57
2022-12-26T20:51:37.530Z,4.97
2022-12-26T20:54:07.641Z,4.97
2022-12-26T20:56:36.498Z,5.30
2022-12-26T20:59:04.592Z,4.73
2022-12-26T21:01:31.748Z,5.17
2022-12-26T21:03:59.157Z,5.10
2022-12-26T21:06:31.209Z,5.07
2022-12-26T21:08:58.664Z,4.67
2022-12-26T21:11:28.226Z,4.30
2022-12-26T21:13:59.841Z,4.23
2022-12-26T21:16:32.087Z,4.10
2022-12-26T21:18:59.333Z,4.37
2022-12-26T21:21:33.169Z,5.20
2022-12-26T21:24:25.611Z,4.90
2022-12-26T21:26:53.388Z,4.90
2022-12-26T21:29:28.301Z,4.53
2022-12-26T21:31:56.817Z,5.00
2022-12-26T21:34:28.052Z,4.73
2022-12-26T21:37:14.753Z,4.63
2022-12-26T21:39:43.077Z,4.67
2022-12-26T21:42:11.080Z,5.53
2022-12-26T21:44:38.362Z,4.40
2022-12-26T21:47:08.144Z,5.03
2022-12-26T21:49:36.309Z,4.73
2022-12-26T21:52:05.393Z,5.07
2022-12-26T21:54:51.119Z,5.10
2022-12-26T21:57:18.552Z,5.37
2022-12-26T21:59:58.454Z,4.73
2022-12-26T22:03:02.462Z,4.70
2022-12-26T22:05:34.768Z,4.73
2022-12-26T22:08:04.104Z,4.40
2022-12-26T22:10:51.868Z,4.70
2022-12-26T22:13:21.606Z,4.77
2022-12-26T22:16:04.594Z,4.33
2022-12-26T22:18:37.730Z,3.53
2022-12-26T22:21:21.923Z,3.73
2022-12-26T22:23:53.495Z,4.00
2022-12-26T22:26:23.038Z,3.80
2022-12-26T22:28:50.211Z,4.30
2022-12-26T22:31:23.307Z,3.40
2022-12-26T22:34:09.937Z,3.23
2022-12-26T22:36:37.119Z,3.80
2022-12-26T22:39:04.477Z,3.20
2022-12-26T22:41:32.570Z,3.00
2022-12-26T22:43:59.549Z,3.47
2022-12-26T22:46:26.596Z,3.40
2022-12-26T22:48:53.680Z,3.37
2022-12-26T22:51:24.745Z,3.23
2022-12-26T22:53:57.341Z,3.23
2022-12-26T22:56:25.027Z,3.17
2022-12-26T22:58:57.292Z,3.60
2022-12-26T23:01:24.516Z,3.40
2022-12-26T23:03:51.695Z,3.33
2022-12-26T23:06:23.439Z,2.93
2022-12-26T23:08:58.525Z,3.57
2022-12-26T23:11:34.855Z,3.23
2022-12-26T23:14:07.790Z,2.93
2022-12-26T23:16:54.760Z,3.47
2022-12-26T23:19:50.616Z,3.10
2022-12-26T23:22:18.136Z,3.23
2022-12-26T23:24:45.224Z,3.37
2022-12-26T23:27:30.651Z,3.57
2022-12-26T23:30:16.165Z,3.20
2022-12-26T23:32:46.545Z,3.03
2022-12-26T23:35:13.738Z,3.00
2022-12-26T23:37:42.082Z,3.30
2022-12-26T23:40:13.255Z,3.23
2022-12-26T23:42:40.614Z,3.20
2022-12-26T23:45:11.041Z,3.20
2022-12-26T23:47:39.242Z,3.20
2022-12-26T23:50:09.278Z,3.33
2022-12-26T23:52:37.107Z,3.00
2022-12-26T23:55:04.588Z,3.20
2022-12-26T23:57:31.781Z,3.40
2022-12-26T23:59:58.942Z,3.50
